• Join FlightAware (Why Join?)
  • Login
  • US Flag 
09:13AM EDT


 

Airport Tracker/Info


-or-


 

Live Flight TrackerFlight Track Log ✈ N331SK ✈ 28-Jun-2013 ✈ KEKM - KFXY

Flight Track Log - Related Links

Times and Time Zones

All times are in EDT time to prevent confusion due to time zone crossing. See the N331SK flight status page for this flight to view local times or setup timezone preferences in your user account.

Time Position Orientation Groundspeed Altitude Reporting Facility
EDT Latitude Longitude Course Direction KTS MPH feet Rate Location/Type
05:01PM 41.7881 -86.0928 292° West 224 258 4,800  Level Chicago Center
05:02PM 41.8756 -86.0969 358° North 261 300 7,900 1,620 Climbing Chicago Center
05:03PM 41.9531 -86.1006 358° North 275 316 8,200 840 Climbing Chicago Center
05:04PM 42.0306 -86.0992 North 277 319 9,700 1,080 Climbing Chicago Center
05:06PM 42.1136 -86.1058 357° North 296 341 10,500 1,020 Climbing Chicago Center
05:07PM 41.9083 -86.7417 285° West  Level FlightAware Approximate
05:07PM 42.1886 -86.1658 329° Northwest 356 410 11,900  Level Chicago Center
05:08PM 41.9339 -86.8687 292° West  Level FlightAware Approximate
05:08PM 42.1908 -86.2986 271° West 361 415 13,700  Level Chicago Center
05:09PM 42.1953 -86.4594 272° West 361 415 16,000 2,220 Climbing Chicago Center
05:10PM 42.1981 -86.5950 272° West 363 418 18,300 1,980 Climbing Chicago Center
05:11PM 42.2022 -86.7264 272° West 363 418 20,200 1,800 Climbing Chicago Center
05:12PM 42.2061 -86.8617 272° West 364 419 22,100 2,040 Climbing Chicago Center
05:13PM 42.2094 -87.0239 272° West 363 418 24,500 1,680 Climbing Chicago Center
05:14PM 42.2092 -87.1572 270° West 360 414 25,600 1,080 Climbing Chicago Center
05:15PM 42.2128 -87.3072 272° West 398 458 26,800 1,020 Climbing Chicago Center
05:16PM 42.2142 -87.4544 271° West 398 458 27,800 960 Climbing Chicago Center
05:17PM 42.2169 -87.6081 271° West 410 472 28,900 1,200 Climbing Chicago Center
05:18PM 42.2192 -87.7939 271° West 417 480 30,300 1,380 Climbing Chicago Center
05:19PM 42.2211 -87.9469 271° West 415 478 31,800 1,320 Climbing Chicago Center
05:20PM 42.2483 -88.0903 284° West 399 459 33,100 1,500 Climbing Chicago Center
05:21PM 42.2767 -88.2294 285° West 392 451 34,900 1,080 Climbing Chicago Center
05:22PM 42.3047 -88.3644 286° West 381 438 35,400 480 Climbing Chicago Center
05:23PM 42.3358 -88.5172 285° West 386 444 36,000 240 Climbing Chicago Center
05:24PM 42.3686 -88.6847 285° West 393 452 36,000  Level Chicago Center
05:25PM 42.3983 -88.8331 285° West 404 465 36,000  Level Chicago Center
05:26PM 42.4269 -88.9806 285° West 404 465 36,000  Level Chicago Center
05:27PM 42.4569 -89.1283 285° West 407 468 36,000  Level Chicago Center
05:28PM 42.4853 -89.2764 285° West 406 467 36,000  Level Chicago Center
05:29PM 42.5142 -89.4256 285° West 408 470 36,000  Level Chicago Center
05:30PM 42.5478 -89.5981 285° West 406 467 36,000  Level Chicago Center
05:31PM 42.5750 -89.7458 284° West 405 466 36,000  Level Chicago Center
05:32PM 42.6025 -89.8928 284° West 403 464 36,000  Level Chicago Center
05:33PM 42.6275 -90.0275 284° West 399 459 36,000 -360 Level Chicago Center
05:34PM 42.6547 -90.1739 284° West 403 464 35,300 -960 Descending Chicago Center
05:36PM 42.6881 -90.3561 284° West 418 481 34,100 -1,080 Descending Chicago Center
05:37PM 42.7167 -90.5122 284° West 428 493 33,100 -1,020 Descending Chicago Center
05:38PM 42.7456 -90.6708 284° West 435 501 32,100 -1,020 Descending Chicago Center
05:39PM 42.7747 -90.8297 284° West 438 504 31,100 -1,440 Descending Chicago Center
05:40PM 42.8092 -91.0239 284° West 446 513 29,200 -1,800 Descending Chicago Center
05:41PM 42.8383 -91.1883 284° West 451 519 27,500 -1,620 Descending Chicago Center
05:42PM 42.8667 -91.3558 283° West 460 529 25,900 -1,620 Descending Chicago Center
05:43PM 42.8950 -91.5200 283° West 459 528 24,200 -1,800 Descending Chicago Center
05:44PM 42.9267 -91.7117 283° West 447 514 22,200 -1,800 Descending Chicago Center
05:45PM 42.9525 -91.8708 283° West 440 506 20,500 -1,920 Descending Chicago Center
05:46PM 42.9828 -92.0578 283° West 431 496 18,200 -1,980 Descending Minneapolis Center
05:47PM 43.0028 -92.1772 283° West 417 480 16,500 -2,040 Descending Chicago Center
05:48PM 43.0306 -92.3561 282° West 408 470 14,200 -1,980 Descending Chicago Center
05:49PM 43.0533 -92.5033 282° West 405 466 12,500 -1,440 Descending Chicago Center
05:50PM 43.0753 -92.6433 282° West 394 453 11,300 -1,140 Descending Chicago Center
05:51PM 43.0944 -92.7736 281° West 373 429 10,200 -1,320 Descending Chicago Center
05:52PM 43.1183 -92.8883 286° West 277 319 8,500 -1,740 Descending Minneapolis Center
05:53PM 43.1325 -92.9803 282° West 253 291 6,500 -1,500 Descending Minneapolis Center
05:54PM 43.1472 -93.0736 282° West 253 291 5,400 -780 Descending Minneapolis Center
05:55PM 43.1617 -93.1683 282° West 254 292 4,900 -540 Descending Minneapolis Center
05:56PM 43.1800 -93.2822 282° West 257 296 4,300 -600 Descending Minneapolis Center
05:59PM 43.1981 -93.4551 283° West  Level FlightAware Approximate
06:06PM 43.2333 -93.6167 304° West  Level FlightAware Approximate